createdAt,value
2018-04-27T00:01:56.759Z,2.40
2018-04-27T00:04:24.152Z,2.57
2018-04-27T00:06:51.759Z,2.60
2018-04-27T00:09:19.146Z,2.67
2018-04-27T00:11:46.560Z,2.10
2018-04-27T00:14:13.964Z,2.30
2018-04-27T00:16:41.371Z,2.70
2018-04-27T00:19:08.796Z,1.93
2018-04-27T00:21:36.198Z,1.90
2018-04-27T00:24:03.608Z,1.70
2018-04-27T00:26:31.055Z,1.43
2018-04-27T00:28:58.456Z,2.17
2018-04-27T00:31:25.975Z,2.17
2018-04-27T00:33:53.402Z,2.07
2018-04-27T00:36:20.891Z,2.20
2018-04-27T00:38:48.289Z,2.27
2018-04-27T00:41:15.714Z,1.67
2018-04-27T00:43:43.259Z,2.60
2018-04-27T00:46:10.714Z,1.90
2018-04-27T00:48:38.161Z,2.10
2018-04-27T00:51:05.547Z,1.50
2018-04-27T00:53:33.170Z,1.70
2018-04-27T00:56:00.558Z,1.40
2018-04-27T00:58:27.976Z,2.30
2018-04-27T01:00:55.399Z,1.90
2018-04-27T01:03:23.237Z,2.77
2018-04-27T01:05:50.661Z,1.83
2018-04-27T01:08:18.167Z,2.23
2018-04-27T01:10:45.583Z,2.90
2018-04-27T01:13:12.978Z,2.40
2018-04-27T01:15:40.399Z,3.07
2018-04-27T01:18:07.807Z,2.33
2018-04-27T01:20:35.234Z,1.80
2018-04-27T01:23:02.621Z,2.17
2018-04-27T01:25:30.046Z,2.00
2018-04-27T01:27:57.437Z,2.37
2018-04-27T01:30:24.842Z,2.00
2018-04-27T01:32:52.326Z,2.70
2018-04-27T01:35:19.723Z,2.30
2018-04-27T01:37:47.260Z,1.83
2018-04-27T01:40:14.776Z,1.83
2018-04-27T01:42:42.232Z,1.87
2018-04-27T01:45:09.685Z,2.20
2018-04-27T01:47:37.172Z,1.80
2018-04-27T01:50:04.622Z,1.97
2018-04-27T01:52:32.044Z,1.87
2018-04-27T01:54:59.441Z,2.30
2018-04-27T01:57:26.921Z,2.37
2018-04-27T01:59:54.672Z,2.30
2018-04-27T02:02:22.223Z,1.80
2018-04-27T02:04:49.686Z,2.70
2018-04-27T02:07:17.113Z,3.20
2018-04-27T02:09:44.509Z,2.10
2018-04-27T02:12:11.930Z,2.30
2018-04-27T02:14:39.337Z,2.80
2018-04-27T02:17:06.792Z,2.60
2018-04-27T02:19:34.307Z,2.73
2018-04-27T02:22:01.801Z,2.37
2018-04-27T02:24:29.237Z,2.73
2018-04-27T02:26:56.814Z,3.23
2018-04-27T02:29:24.311Z,2.87
2018-04-27T02:31:51.760Z,3.00
2018-04-27T02:34:19.192Z,2.67
2018-04-27T02:36:46.716Z,2.90
2018-04-27T02:39:14.197Z,2.90
2018-04-27T02:41:41.864Z,3.77
2018-04-27T02:44:09.280Z,3.10
2018-04-27T02:46:36.802Z,3.33
2018-04-27T02:49:04.321Z,2.77
2018-04-27T02:51:31.744Z,3.37
2018-04-27T02:53:59.220Z,2.80
2018-04-27T02:56:26.632Z,3.63
2018-04-27T02:58:54.039Z,3.00
2018-04-27T03:01:21.449Z,3.60
2018-04-27T03:03:48.845Z,3.00
2018-04-27T03:06:16.315Z,3.80
2018-04-27T03:08:43.889Z,3.03
2018-04-27T03:11:11.337Z,3.70
2018-04-27T03:13:38.744Z,4.10
2018-04-27T03:16:06.168Z,2.73
2018-04-27T03:18:33.543Z,3.47
2018-04-27T03:21:00.933Z,3.93
2018-04-27T03:23:28.351Z,4.07
2018-04-27T03:25:55.767Z,4.67
2018-04-27T03:28:23.225Z,3.57
2018-04-27T03:30:50.660Z,4.20
2018-04-27T03:33:18.092Z,4.20
2018-04-27T03:35:45.499Z,3.77
2018-04-27T03:38:12.887Z,4.00
2018-04-27T03:40:40.290Z,4.80
2018-04-27T03:43:07.679Z,3.93
2018-04-27T03:45:35.083Z,4.00
2018-04-27T03:48:02.496Z,3.80
2018-04-27T03:50:30.085Z,3.70
2018-04-27T03:52:57.624Z,3.93
2018-04-27T03:55:25.093Z,3.83
2018-04-27T03:57:52.483Z,3.20
2018-04-27T04:00:31.486Z,3.53
2018-04-27T04:03:10.465Z,3.37
2018-04-27T04:05:37.876Z,4.10
2018-04-27T04:08:05.266Z,4.23
2018-04-27T04:10:32.674Z,5.00
2018-04-27T04:13:00.095Z,5.00
2018-04-27T04:15:27.512Z,4.63
2018-04-27T04:17:54.963Z,4.43
2018-04-27T04:20:22.336Z,3.43
2018-04-27T04:22:49.788Z,4.60
2018-04-27T04:25:17.196Z,4.33
2018-04-27T04:27:44.594Z,3.93
2018-04-27T04:30:12.170Z,4.47
2018-04-27T04:32:39.608Z,4.10
2018-04-27T04:35:07.001Z,3.90
2018-04-27T04:37:34.416Z,4.00
2018-04-27T04:40:02.198Z,4.57
2018-04-27T04:42:29.743Z,4.20
2018-04-27T04:44:57.168Z,5.30
2018-04-27T04:47:24.585Z,4.30
2018-04-27T06:05:48.931Z,5.57
2018-04-27T06:08:16.403Z,5.83
2018-04-27T06:10:43.800Z,5.23
2018-04-27T06:13:11.353Z,5.30
2018-04-27T06:15:38.800Z,5.97
2018-04-27T06:18:06.370Z,5.10
2018-04-27T06:20:33.816Z,5.20
2018-04-27T06:23:01.226Z,5.70
2018-04-27T06:25:28.648Z,4.77
2018-04-27T06:27:56.631Z,5.73
2018-04-27T06:30:24.027Z,5.20
2018-04-27T06:32:51.552Z,4.10
2018-04-27T06:35:19.387Z,4.83
2018-04-27T06:37:46.784Z,5.47
2018-04-27T06:40:14.258Z,5.57
2018-04-27T06:42:41.747Z,4.67
2018-04-27T06:45:09.204Z,4.87
2018-04-27T06:47:36.691Z,6.13
2018-04-27T06:50:04.085Z,5.37
2018-04-27T06:52:31.584Z,5.50
2018-04-27T06:54:58.954Z,5.40
2018-04-27T06:57:26.691Z,5.23
2018-04-27T06:59:54.151Z,5.07
2018-04-27T07:02:21.532Z,5.07
2018-04-27T07:04:49.148Z,5.03
2018-04-27T07:07:20.957Z,4.57
2018-04-27T07:09:48.423Z,5.50
2018-04-27T07:12:15.820Z,5.37
2018-04-27T07:14:43.255Z,5.53
2018-04-27T07:17:10.828Z,5.70
2018-04-27T07:19:38.149Z,5.37
2018-04-27T07:22:05.542Z,5.83
2018-04-27T07:24:32.948Z,5.33
2018-04-27T07:27:00.373Z,4.87
2018-04-27T07:29:27.963Z,4.97
2018-04-27T07:31:55.406Z,4.67
2018-04-27T07:34:22.979Z,4.83
2018-04-27T07:36:50.395Z,4.70
2018-04-27T07:39:17.882Z,4.20
2018-04-27T07:41:45.304Z,3.90
2018-04-27T07:44:12.697Z,3.90
2018-04-27T07:46:40.157Z,3.97
2018-04-27T07:49:07.587Z,4.20
2018-04-27T07:51:35.111Z,4.23
2018-04-27T07:54:02.526Z,4.23
2018-04-27T07:56:29.952Z,3.77
2018-04-27T07:58:57.378Z,4.30
2018-04-27T08:01:24.893Z,4.30
2018-04-27T08:03:52.328Z,4.07
2018-04-27T08:06:19.733Z,3.90
2018-04-27T08:08:47.363Z,4.63
2018-04-27T08:11:14.761Z,4.97
2018-04-27T08:13:42.199Z,5.27
2018-04-27T08:16:09.642Z,3.93
2018-04-27T08:18:37.128Z,3.77
2018-04-27T08:21:04.430Z,4.50
2018-04-27T08:23:31.968Z,4.43
2018-04-27T08:25:59.660Z,3.67
2018-04-27T08:28:27.095Z,3.80
2018-04-27T08:30:54.487Z,4.20
2018-04-27T08:33:21.926Z,4.00
2018-04-27T08:35:49.560Z,3.87
2018-04-27T08:38:17.722Z,2.73
2018-04-27T08:40:45.588Z,3.97
2018-04-27T08:43:13.196Z,4.03
2018-04-27T08:45:40.744Z,3.57
2018-04-27T08:48:08.438Z,4.10
2018-04-27T08:50:36.509Z,3.33
2018-04-27T08:53:04.204Z,3.23
2018-04-27T08:55:31.904Z,2.80
2018-04-27T08:58:00.166Z,2.70
2018-04-27T09:00:28.972Z,2.97
2018-04-27T09:02:56.799Z,5.40
2018-04-27T09:05:24.806Z,6.20
2018-04-27T09:07:52.957Z,3.43
2018-04-27T09:10:20.857Z,4.80
2018-04-27T09:12:48.677Z,2.80
2018-04-27T09:15:16.095Z,2.57
2018-04-27T09:17:43.507Z,2.40
2018-04-27T09:20:11.044Z,3.50
2018-04-27T09:22:38.463Z,4.20
2018-04-27T09:25:05.903Z,2.30
2018-04-27T09:27:33.414Z,2.73
2018-04-27T09:30:00.837Z,1.97
2018-04-27T09:32:28.235Z,2.50
2018-04-27T09:34:55.796Z,3.10
2018-04-27T09:37:23.170Z,2.63
2018-04-27T09:39:50.643Z,2.90
2018-04-27T09:42:18.313Z,2.47
2018-04-27T09:44:45.726Z,4.00
2018-04-27T09:47:13.171Z,2.83
2018-04-27T09:49:40.547Z,1.80
2018-04-27T09:52:07.958Z,1.97
2018-04-27T09:54:35.366Z,3.03
2018-04-27T09:57:02.830Z,3.80
2018-04-27T09:59:30.250Z,2.27
2018-04-27T10:01:57.707Z,2.70
2018-04-27T10:04:25.111Z,2.17
2018-04-27T10:06:52.520Z,2.47
2018-04-27T10:09:19.937Z,2.40
2018-04-27T10:11:47.353Z,2.50
2018-04-27T10:14:14.936Z,2.43
2018-04-27T10:16:42.342Z,2.43
2018-04-27T10:19:09.730Z,2.00
2018-04-27T10:21:37.147Z,2.00
2018-04-27T10:24:04.560Z,2.00
2018-04-27T10:26:32.003Z,1.90
2018-04-27T10:29:00.204Z,1.60
2018-04-27T10:31:27.600Z,1.57
2018-04-27T10:33:55.084Z,2.70
2018-04-27T10:36:22.498Z,1.73
2018-04-27T10:38:49.922Z,1.80
2018-04-27T10:41:17.351Z,1.57
2018-04-27T10:43:44.803Z,1.60
2018-04-27T10:46:12.211Z,1.90
2018-04-27T10:48:39.887Z,2.33
2018-04-27T10:51:07.273Z,1.87
2018-04-27T10:53:34.762Z,1.50
2018-04-27T10:56:02.437Z,2.40
2018-04-27T10:58:29.831Z,1.90
2018-04-27T11:00:57.240Z,1.87
2018-04-27T11:03:25.470Z,1.90
2018-04-27T11:05:52.815Z,2.30
2018-04-27T11:08:20.268Z,1.80
2018-04-27T11:10:47.642Z,2.27
2018-04-27T11:13:15.095Z,1.70
2018-04-27T11:15:42.500Z,1.60
2018-04-27T11:18:09.876Z,2.20
2018-04-27T11:20:37.289Z,2.20
2018-04-27T11:23:04.716Z,2.00
2018-04-27T11:25:35.886Z,1.87
2018-04-27T11:28:03.319Z,3.03
2018-04-27T11:30:30.738Z,2.03
2018-04-27T11:32:58.224Z,1.60
2018-04-27T11:35:25.646Z,2.07
2018-04-27T11:37:53.042Z,2.00
2018-04-27T11:40:20.874Z,3.20
2018-04-27T11:42:48.278Z,3.00
2018-04-27T11:45:15.760Z,2.60
2018-04-27T11:47:43.256Z,1.87
2018-04-27T11:50:10.594Z,2.10
2018-04-27T11:52:38.028Z,2.23
2018-04-27T11:55:05.421Z,2.60
2018-04-27T11:57:32.858Z,2.47
2018-04-27T12:00:00.269Z,2.10
2018-04-27T12:02:27.695Z,1.77
2018-04-27T12:04:55.080Z,2.60
2018-04-27T12:07:22.500Z,2.47
2018-04-27T12:09:49.924Z,2.70
2018-04-27T12:12:17.344Z,2.20
2018-04-27T12:14:44.764Z,2.07
2018-04-27T12:17:12.229Z,2.00
2018-04-27T12:19:39.693Z,2.37
2018-04-27T12:22:07.132Z,2.13
2018-04-27T12:24:34.519Z,1.90
2018-04-27T12:27:01.964Z,2.30
2018-04-27T12:29:29.361Z,2.47
2018-04-27T12:31:56.787Z,2.20
2018-04-27T12:34:24.145Z,1.97
2018-04-27T12:36:51.575Z,2.60
2018-04-27T12:39:18.996Z,2.13
2018-04-27T12:41:46.385Z,1.90
2018-04-27T12:44:13.811Z,2.70
2018-04-27T12:46:41.201Z,5.60
2018-04-27T12:49:08.626Z,2.17
2018-04-27T12:51:36.023Z,2.70
2018-04-27T12:54:03.440Z,2.20
2018-04-27T12:56:30.838Z,1.90
2018-04-27T12:58:58.252Z,2.43
2018-04-27T13:01:25.667Z,3.33
2018-04-27T13:03:53.062Z,2.27
2018-04-27T13:06:20.830Z,1.97
2018-04-27T13:08:48.359Z,1.80
2018-04-27T13:11:15.771Z,2.30
2018-04-27T13:13:43.385Z,2.00
2018-04-27T13:16:10.788Z,2.03
2018-04-27T13:18:38.181Z,1.90
2018-04-27T13:21:05.592Z,2.20
2018-04-27T13:23:32.992Z,2.10
2018-04-27T13:26:00.419Z,2.30
2018-04-27T13:28:27.813Z,2.00
2018-04-27T13:30:55.204Z,1.80
2018-04-27T13:33:22.584Z,2.30
2018-04-27T13:35:50.005Z,1.77
2018-04-27T13:38:17.391Z,2.17
2018-04-27T13:40:44.839Z,1.90
2018-04-27T13:43:12.272Z,1.50
2018-04-27T13:45:39.704Z,1.80
2018-04-27T13:48:07.212Z,1.90
2018-04-27T13:50:34.677Z,2.23
2018-04-27T13:53:02.107Z,2.33
2018-04-27T13:55:29.546Z,2.17
2018-04-27T13:57:56.951Z,1.77
2018-04-27T14:00:24.348Z,2.00
2018-04-27T14:02:52.009Z,2.30
2018-04-27T14:05:19.582Z,1.77
2018-04-27T14:07:47.515Z,2.00
2018-04-27T14:10:14.936Z,2.50
2018-04-27T14:12:42.380Z,2.10
2018-04-27T14:15:09.833Z,2.40
2018-04-27T14:17:37.276Z,1.90
2018-04-27T14:20:04.720Z,1.50
2018-04-27T14:22:32.511Z,1.90
2018-04-27T14:25:00.051Z,1.57
2018-04-27T14:27:27.553Z,2.07
2018-04-27T14:29:55.310Z,1.70
2018-04-27T14:32:22.810Z,2.00
2018-04-27T14:34:50.302Z,2.00
2018-04-27T14:37:17.712Z,1.57
2018-04-27T14:39:45.137Z,1.83
2018-04-27T14:42:12.509Z,2.37
2018-04-27T14:44:39.933Z,1.73
2018-04-27T14:47:07.331Z,1.70
2018-04-27T14:49:34.801Z,2.27
2018-04-27T14:52:02.324Z,1.57
2018-04-27T14:54:29.772Z,2.30
2018-04-27T14:56:57.179Z,2.70
2018-04-27T14:59:24.692Z,2.47
2018-04-27T15:01:52.128Z,2.00
2018-04-27T15:04:19.541Z,2.40
2018-04-27T15:06:46.952Z,2.20
2018-04-27T15:09:14.360Z,2.10
2018-04-27T15:11:41.746Z,1.80
2018-04-27T15:14:09.205Z,2.30
2018-04-27T15:16:36.629Z,2.07
2018-04-27T15:19:04.032Z,1.50
2018-04-27T15:21:31.460Z,1.90
2018-04-27T15:23:58.848Z,1.93
2018-04-27T15:26:26.278Z,2.07
2018-04-27T15:28:53.688Z,1.93
2018-04-27T15:31:21.100Z,1.70
2018-04-27T15:33:48.535Z,1.57
2018-04-27T15:36:15.924Z,1.73
2018-04-27T15:38:43.434Z,2.23
2018-04-27T15:41:10.848Z,1.43
2018-04-27T15:43:38.233Z,1.83
2018-04-27T15:46:05.658Z,1.53
2018-04-27T15:48:33.051Z,1.70
2018-04-27T15:51:00.471Z,1.90
2018-04-27T15:53:27.867Z,1.90
2018-04-27T15:55:55.462Z,1.70
2018-04-27T15:58:22.835Z,1.60
2018-04-27T16:00:50.332Z,1.70
2018-04-27T16:03:17.750Z,1.77
2018-04-27T16:05:45.177Z,1.90
2018-04-27T16:08:12.582Z,1.53
2018-04-27T16:10:41.053Z,2.00
2018-04-27T16:13:13.033Z,1.70
2018-04-27T16:15:40.525Z,1.40
2018-04-27T16:18:12.644Z,2.00
2018-04-27T16:20:40.060Z,1.47
2018-04-27T16:23:07.506Z,1.63
2018-04-27T16:25:35.496Z,1.40
2018-04-27T16:28:03.002Z,1.60
2018-04-27T16:30:30.336Z,1.83
2018-04-27T16:32:59.026Z,1.87
2018-04-27T16:35:26.552Z,1.67
2018-04-27T16:37:54.036Z,2.10
2018-04-27T16:40:21.425Z,1.80
2018-04-27T16:42:48.815Z,2.10
2018-04-27T16:45:16.218Z,2.50
2018-04-27T16:47:43.636Z,2.13
2018-04-27T16:50:11.039Z,2.23
2018-04-27T16:52:38.484Z,2.60
2018-04-27T16:55:05.912Z,2.10
2018-04-27T16:57:33.301Z,2.10
2018-04-27T17:00:00.748Z,1.90
2018-04-27T17:02:28.323Z,1.57
2018-04-27T17:04:55.728Z,2.10
2018-04-27T17:07:23.110Z,2.37
2018-04-27T17:09:50.537Z,1.63
2018-04-27T17:12:17.953Z,1.90
2018-04-27T17:14:45.363Z,1.70
2018-04-27T17:17:12.832Z,3.60
2018-04-27T17:19:40.248Z,2.93
2018-04-27T17:22:07.708Z,2.63
2018-04-27T17:24:35.091Z,1.63
2018-04-27T17:27:02.604Z,1.63
2018-04-27T17:29:30.066Z,2.60
2018-04-27T17:31:57.466Z,2.20
2018-04-27T17:34:24.858Z,1.57
2018-04-27T17:36:52.380Z,2.60
2018-04-27T17:39:19.741Z,2.70
2018-04-27T17:41:47.196Z,3.23
2018-04-27T17:44:14.596Z,2.73
2018-04-27T17:46:42.064Z,2.90
2018-04-27T17:49:09.591Z,2.40
2018-04-27T17:51:37.046Z,2.50
2018-04-27T17:54:04.416Z,2.70
2018-04-27T17:56:32.054Z,3.03
2018-04-27T17:58:59.734Z,3.77
2018-04-27T18:01:27.818Z,2.93
2018-04-27T18:03:55.393Z,3.70
2018-04-27T18:06:23.280Z,3.30
2018-04-27T18:08:52.736Z,2.77
2018-04-27T18:11:20.736Z,3.40
2018-04-27T18:13:48.344Z,3.70
2018-04-27T18:16:15.964Z,2.60
2018-04-27T18:18:45.364Z,2.27
2018-04-27T18:21:12.747Z,2.80
2018-04-27T18:23:40.176Z,3.80
2018-04-27T18:26:07.568Z,3.40
2018-04-27T18:28:35.091Z,4.10
2018-04-27T18:31:02.503Z,5.13
2018-04-27T18:33:29.904Z,3.77
2018-04-27T18:35:57.379Z,9.50
2018-04-27T18:38:24.813Z,6.57
2018-04-27T18:40:52.231Z,4.87
2018-04-27T18:43:19.648Z,5.30
2018-04-27T18:45:47.077Z,5.53
2018-04-27T18:48:14.463Z,6.67
2018-04-27T18:50:43.491Z,6.17
2018-04-27T18:53:10.909Z,6.20
2018-04-27T18:55:38.378Z,4.90
2018-04-27T18:58:06.406Z,7.60
2018-04-27T19:00:37.652Z,7.30
2018-04-27T19:03:05.085Z,7.60
2018-04-27T19:05:33.227Z,6.50
2018-04-27T19:08:01.431Z,6.83
2018-04-27T19:10:35.193Z,5.03
2018-04-27T19:13:02.653Z,5.27
2018-04-27T19:15:30.260Z,5.00
2018-04-27T19:18:02.448Z,4.60
2018-04-27T19:20:29.864Z,4.80
2018-04-27T19:22:58.139Z,4.87
2018-04-27T19:25:25.536Z,5.10
2018-04-27T19:27:52.971Z,5.90
2018-04-27T19:30:20.409Z,5.10
2018-04-27T19:32:48.860Z,4.57
2018-04-27T19:35:16.366Z,5.60
2018-04-27T19:37:44.715Z,6.10
2018-04-27T19:40:13.491Z,4.90
2018-04-27T19:42:41.094Z,5.60
2018-04-27T19:45:08.513Z,4.60
2018-04-27T19:47:35.949Z,4.10
2018-04-27T19:50:03.325Z,3.93
2018-04-27T19:52:32.678Z,3.60
2018-04-27T19:55:00.363Z,4.00
2018-04-27T19:57:28.926Z,4.90
2018-04-27T19:59:56.389Z,4.33
2018-04-27T20:02:23.821Z,7.50
2018-04-27T20:04:51.265Z,4.10
2018-04-27T20:07:18.719Z,3.53
2018-04-27T20:09:53.749Z,3.63
2018-04-27T20:12:21.369Z,4.03
2018-04-27T20:14:48.921Z,3.70
2018-04-27T20:17:28.154Z,4.40
2018-04-27T20:19:55.689Z,4.47
2018-04-27T20:22:23.066Z,5.23
2018-04-27T20:24:50.630Z,4.23
2018-04-27T20:27:18.887Z,4.70
2018-04-27T20:29:46.375Z,4.60
2018-04-27T20:32:13.951Z,5.00
2018-04-27T20:34:41.530Z,6.03
2018-04-27T20:37:09.002Z,4.30
2018-04-27T20:39:36.429Z,5.00
2018-04-27T20:42:08.415Z,5.90
2018-04-27T20:44:35.817Z,5.87
2018-04-27T20:47:03.313Z,4.67
2018-04-27T20:49:30.856Z,4.00
2018-04-27T20:51:58.282Z,5.43
2018-04-27T20:54:25.698Z,4.33
2018-04-27T20:56:53.133Z,4.20
2018-04-27T20:59:20.584Z,4.37
2018-04-27T21:01:48.031Z,4.27
2018-04-27T21:04:15.448Z,4.47
2018-04-27T21:06:42.869Z,4.47
2018-04-27T21:09:10.241Z,5.63
2018-04-27T21:11:40.543Z,5.97
2018-04-27T21:14:08.789Z,5.13
2018-04-27T21:16:36.154Z,4.63
2018-04-27T21:19:04.357Z,5.03
2018-04-27T21:21:32.319Z,5.63
2018-04-27T21:24:00.119Z,6.70
2018-04-27T21:26:28.362Z,6.93
2018-04-27T21:28:56.715Z,6.80
2018-04-27T21:31:24.190Z,7.30
2018-04-27T21:33:58.935Z,7.60
2018-04-27T21:36:28.430Z,7.57
2018-04-27T21:39:34.369Z,7.47
2018-04-27T21:42:12.722Z,7.73
2018-04-27T21:44:44.545Z,8.13
2018-04-27T21:47:23.742Z,8.40
2018-04-27T21:49:51.171Z,6.43
2018-04-27T21:52:19.554Z,7.10
2018-04-27T21:54:46.997Z,7.37
2018-04-27T21:57:22.895Z,7.90
2018-04-27T21:59:54.895Z,5.70
2018-04-27T22:05:41.795Z,5.53
2018-04-27T22:08:11.804Z,6.47
2018-04-27T22:10:39.295Z,4.93
2018-04-27T22:13:06.783Z,4.67
2018-04-27T22:15:34.244Z,5.60
2018-04-27T22:18:01.676Z,4.73
2018-04-27T22:20:30.021Z,5.47
2018-04-27T22:22:57.466Z,4.90
2018-04-27T22:28:37.738Z,5.07
2018-04-27T22:31:05.919Z,5.30
2018-04-27T22:36:37.855Z,5.47
2018-04-27T22:42:09.291Z,4.60
2018-04-27T22:44:53.470Z,4.10
2018-04-27T22:50:22.529Z,4.50
2018-04-27T22:52:50.783Z,3.50
2018-04-27T22:55:19.108Z,3.60
2018-04-27T22:58:10.263Z,3.50
2018-04-27T23:00:38.503Z,3.37
2018-04-27T23:03:09.788Z,3.37
2018-04-27T23:05:37.388Z,3.47
2018-04-27T23:08:04.928Z,3.20
2018-04-27T23:10:40.287Z,3.40
2018-04-27T23:13:08.151Z,2.83
2018-04-27T23:15:38.653Z,3.60
2018-04-27T23:18:21.185Z,3.10
2018-04-27T23:20:48.676Z,3.70
2018-04-27T23:23:16.186Z,2.87
2018-04-27T23:25:45.499Z,3.70
2018-04-27T23:28:12.951Z,3.37
2018-04-27T23:30:44.019Z,3.40
2018-04-27T23:33:12.641Z,3.70
2018-04-27T23:35:50.900Z,3.47
2018-04-27T23:38:18.529Z,3.10
2018-04-27T23:40:47.122Z,3.20
2018-04-27T23:43:14.945Z,2.93
2018-04-27T23:45:45.041Z,2.57
2018-04-27T23:48:12.534Z,2.43
2018-04-27T23:50:40.030Z,2.57
2018-04-27T23:53:07.490Z,2.20
2018-04-27T23:55:35.952Z,2.80
2018-04-27T23:58:03.541Z,2.23
